createdAt,value
2023-02-19T20:04:34.572Z,22.12
2023-02-19T20:07:01.825Z,22.10
2023-02-19T20:18:34.797Z,18.93
2023-02-19T20:22:10.114Z,17.00
2023-02-19T20:24:36.832Z,15.84
2023-02-19T20:27:04.168Z,14.55
2023-02-19T20:29:33.378Z,13.92
2023-02-19T20:32:02.764Z,13.23
2023-02-19T20:34:30.402Z,12.72
2023-02-19T20:36:57.595Z,12.24
2023-02-19T20:39:28.856Z,11.87
2023-02-19T20:41:56.796Z,11.54
2023-02-19T20:44:23.650Z,11.25
2023-02-19T20:46:52.220Z,11.04
2023-02-19T20:49:21.112Z,10.80
2023-02-19T20:51:48.825Z,10.63
2023-02-19T20:54:17.884Z,10.46
2023-02-19T20:56:49.548Z,10.35
2023-02-19T20:59:20.393Z,10.22
2023-02-19T21:01:47.043Z,10.14
2023-02-19T21:04:14.274Z,10.01
2023-02-19T21:06:40.960Z,9.94
2023-02-19T21:09:08.107Z,9.89
2023-02-19T21:11:34.901Z,9.76
2023-02-19T21:14:02.661Z,9.78
2023-02-19T21:16:31.256Z,9.76
2023-02-19T21:18:58.645Z,9.71
2023-02-19T21:21:26.347Z,9.64
2023-02-19T21:23:54.704Z,9.54
2023-02-19T21:26:21.504Z,9.57
2023-02-19T21:28:51.495Z,9.56
2023-02-19T21:31:19.294Z,9.51
2023-02-19T21:33:46.594Z,9.41
2023-02-19T21:36:13.484Z,9.43
2023-02-19T21:38:40.331Z,9.35
2023-02-19T21:41:07.102Z,9.44
2023-02-19T21:43:33.737Z,9.43
2023-02-19T21:46:00.584Z,9.38
2023-02-19T21:48:27.289Z,9.40
2023-02-19T21:50:54.008Z,9.28
2023-02-19T21:53:20.727Z,9.30
2023-02-19T21:55:57.798Z,9.18
2023-02-19T21:58:25.873Z,9.24
2023-02-19T22:00:53.964Z,9.29
2023-02-19T22:03:20.888Z,9.16
2023-02-19T22:05:47.584Z,9.26
2023-02-19T22:08:15.684Z,9.20
2023-02-19T22:10:42.660Z,8.83
2023-02-19T22:13:10.260Z,9.24
2023-02-19T22:15:37.051Z,9.13
2023-02-19T22:18:04.105Z,9.23
2023-02-19T22:20:30.846Z,9.21
2023-02-19T22:22:57.534Z,9.19
2023-02-19T22:25:24.244Z,9.25
2023-02-19T22:27:53.904Z,9.26
2023-02-19T22:30:23.474Z,9.21
2023-02-19T22:32:50.321Z,9.18
2023-02-19T22:35:17.109Z,9.19
2023-02-19T22:37:43.833Z,9.14
2023-02-19T22:40:10.905Z,9.16
2023-02-19T22:42:38.367Z,9.12
2023-02-19T22:45:06.425Z,9.22
2023-02-19T22:47:33.159Z,9.19
2023-02-19T22:49:59.922Z,9.21
2023-02-19T22:52:28.191Z,9.14
2023-02-19T22:54:55.709Z,9.12
2023-02-19T22:57:22.496Z,9.12
2023-02-19T22:59:49.368Z,9.02
2023-02-19T23:02:16.105Z,9.19
2023-02-19T23:04:43.562Z,9.09
2023-02-19T23:07:14.765Z,8.99
2023-02-19T23:09:42.888Z,9.04
2023-02-19T23:12:11.417Z,9.04
2023-02-19T23:14:38.400Z,8.97
2023-02-19T23:17:05.441Z,8.93
2023-02-19T23:19:32.215Z,8.97
2023-02-19T23:22:00.771Z,8.86
2023-02-19T23:24:30.804Z,8.88
2023-02-19T23:26:57.796Z,8.84
2023-02-19T23:29:34.604Z,8.95
2023-02-19T23:32:04.497Z,8.79
2023-02-19T23:34:34.108Z,8.87
2023-02-19T23:37:03.737Z,8.91
2023-02-19T23:39:32.997Z,8.89
2023-02-19T23:41:59.761Z,8.84
2023-02-19T23:44:26.552Z,8.83
2023-02-19T23:46:53.235Z,8.75
2023-02-19T23:49:20.384Z,8.77
2023-02-19T23:51:47.410Z,8.75
2023-02-19T23:54:14.170Z,8.67
2023-02-19T23:56:40.962Z,8.60
2023-02-19T23:59:07.657Z,8.40
